DLH9M EDDH-EDDM
Flight info
| Callsign | DLH9M |
|---|---|
| Flight time | 0h 56m |
| Altitude | 35000 |
| Route | AMLUH2G/33 AMLUH M852 DENIX DCT ZUCKA DCT SODRO/N0403F310 T703 LULAR/N0391F300 T105 LANDU LANDU2B |
| Aircraft | A21N/M-SDE2E3FGIJ1LORWXYZ/HB1 |
Departure
| Time | 2026-05-07 20:49 |
|---|---|
| Airport | Hamburg Helmut Schmidt Airport (EDDH) |
Arrival
| Time | 2026-05-07 21:45 |
|---|---|
| Airport | Munich Airport (EDDM) |
| Time | Latitude | Longitude | Altitude | Speed | Heading |
|---|---|---|---|---|---|
| 2026-05-07 20:20 | 53.63167 | 10.00357 | 54 ft | 0 kts | 85° |
| 2026-05-07 20:41 | 53.63165 | 10.00321 | 54 ft | 4 kts | 87° |
| 2026-05-07 20:41 | 53.63164 | 10.00276 | 53 ft | 4 kts | 87° |
| 2026-05-07 20:42 | 53.63164 | 10.00240 | 52 ft | 4 kts | 96° |
| 2026-05-07 20:42 | 53.63172 | 10.00200 | 47 ft | 5 kts | 132° |
| 2026-05-07 20:42 | 53.63188 | 10.00183 | 52 ft | 2 kts | 175° |
| 2026-05-07 20:45 | 53.63187 | 10.00183 | 52 ft | 1 kts | 175° |
| 2026-05-07 20:45 | 53.63163 | 10.00186 | 50 ft | 6 kts | 176° |
| 2026-05-07 20:45 | 53.63111 | 10.00192 | 54 ft | 10 kts | 180° |
| 2026-05-07 20:46 | 53.63036 | 10.00147 | 54 ft | 13 kts | 211° |
| 2026-05-07 20:46 | 53.62954 | 10.00060 | 54 ft | 15 kts | 212° |
| 2026-05-07 20:46 | 53.62849 | 10.00067 | 51 ft | 17 kts | 152° |
| 2026-05-07 20:46 | 53.62738 | 10.00163 | 54 ft | 19 kts | 153° |
| 2026-05-07 20:47 | 53.62636 | 10.00250 | 54 ft | 8 kts | 154° |
| 2026-05-07 20:47 | 53.62579 | 10.00223 | 51 ft | 10 kts | 230° |
| 2026-05-07 20:47 | 53.62543 | 10.00108 | 52 ft | 12 kts | 255° |
| 2026-05-07 20:47 | 53.62585 | 9.99989 | 52 ft | 8 kts | 332° |
| 2026-05-07 20:48 | 53.62587 | 9.99987 | 52 ft | 0 kts | 334° |
| 2026-05-07 20:48 | 53.62588 | 9.99986 | 52 ft | 2 kts | 334° |
| 2026-05-07 20:49 | 53.62808 | 9.99797 | 51 ft | 76 kts | 333° |
| 2026-05-07 20:49 | 53.63515 | 9.99186 | 53 ft | 148 kts | 333° |
| 2026-05-07 20:49 | 53.64562 | 9.98274 | 333 ft | 175 kts | 334° |
| 2026-05-07 20:49 | 53.65634 | 9.97325 | 1103 ft | 175 kts | 336° |
| 2026-05-07 20:50 | 53.66756 | 9.96375 | 1759 ft | 186 kts | 336° |
| 2026-05-07 20:50 | 53.67946 | 9.95368 | 2434 ft | 197 kts | 336° |
| 2026-05-07 20:50 | 53.69274 | 9.94648 | 3126 ft | 206 kts | 356° |
| 2026-05-07 20:50 | 53.70743 | 9.94624 | 3871 ft | 216 kts | 3° |
| 2026-05-07 20:51 | 53.72274 | 9.94691 | 4534 ft | 221 kts | 10° |
| 2026-05-07 20:51 | 53.73685 | 9.95609 | 5305 ft | 219 kts | 39° |
| 2026-05-07 20:51 | 53.74650 | 9.97563 | 6186 ft | 219 kts | 65° |
| 2026-05-07 20:51 | 53.74972 | 10.00064 | 7020 ft | 221 kts | 91° |
| 2026-05-07 20:52 | 53.74623 | 10.02609 | 7817 ft | 226 kts | 111° |
| 2026-05-07 20:52 | 53.73897 | 10.05014 | 8464 ft | 240 kts | 120° |
| 2026-05-07 20:52 | 53.72996 | 10.07537 | 8915 ft | 262 kts | 120° |
| 2026-05-07 20:52 | 53.72038 | 10.10269 | 9509 ft | 277 kts | 120° |
| 2026-05-07 20:53 | 53.71058 | 10.13114 | 10291 ft | 284 kts | 120° |
| 2026-05-07 20:53 | 53.70021 | 10.16099 | 10716 ft | 305 kts | 122° |
| 2026-05-07 20:53 | 53.68667 | 10.18944 | 11025 ft | 327 kts | 136° |
| 2026-05-07 20:53 | 53.66754 | 10.21230 | 11312 ft | 349 kts | 153° |
| 2026-05-07 20:54 | 53.64404 | 10.22627 | 11602 ft | 369 kts | 165° |
| 2026-05-07 20:54 | 53.61857 | 10.23728 | 11981 ft | 384 kts | 166° |
| 2026-05-07 20:54 | 53.59244 | 10.24852 | 12621 ft | 390 kts | 166° |
| 2026-05-07 20:54 | 53.56606 | 10.26019 | 13288 ft | 394 kts | 166° |
| 2026-05-07 20:55 | 53.53942 | 10.27213 | 13946 ft | 398 kts | 165° |
| 2026-05-07 20:55 | 53.51251 | 10.28431 | 14518 ft | 402 kts | 165° |
| 2026-05-07 20:55 | 53.48545 | 10.29670 | 15116 ft | 405 kts | 165° |
| 2026-05-07 20:55 | 53.45810 | 10.30922 | 15736 ft | 409 kts | 165° |
| 2026-05-07 20:56 | 53.43058 | 10.32173 | 16404 ft | 412 kts | 165° |
| 2026-05-07 20:56 | 53.40277 | 10.33433 | 17076 ft | 416 kts | 165° |
| 2026-05-07 20:56 | 53.37467 | 10.34698 | 17712 ft | 420 kts | 165° |
| 2026-05-07 20:56 | 53.34608 | 10.35825 | 18355 ft | 424 kts | 169° |
| 2026-05-07 20:57 | 53.31705 | 10.36780 | 18919 ft | 427 kts | 169° |
| 2026-05-07 20:57 | 53.28773 | 10.37726 | 19475 ft | 431 kts | 170° |
| 2026-05-07 20:57 | 53.25820 | 10.38691 | 20017 ft | 434 kts | 170° |
| 2026-05-07 20:57 | 53.22850 | 10.39672 | 20546 ft | 437 kts | 169° |
| 2026-05-07 20:58 | 53.19854 | 10.40668 | 21068 ft | 440 kts | 169° |
| 2026-05-07 20:58 | 53.16845 | 10.41670 | 21573 ft | 443 kts | 169° |
| 2026-05-07 20:58 | 53.13808 | 10.42679 | 22072 ft | 446 kts | 169° |
| 2026-05-07 20:58 | 53.10749 | 10.43696 | 22569 ft | 450 kts | 169° |
| 2026-05-07 20:59 | 53.07670 | 10.44717 | 23058 ft | 453 kts | 170° |
| 2026-05-07 20:59 | 53.04572 | 10.45738 | 23561 ft | 456 kts | 170° |
| 2026-05-07 20:59 | 53.01447 | 10.46768 | 24005 ft | 459 kts | 170° |
| 2026-05-07 20:59 | 52.98302 | 10.47804 | 24435 ft | 462 kts | 170° |
| 2026-05-07 21:00 | 52.95142 | 10.48842 | 24855 ft | 465 kts | 170° |
| 2026-05-07 21:00 | 52.91962 | 10.49882 | 25315 ft | 466 kts | 170° |
| 2026-05-07 21:00 | 52.88783 | 10.50916 | 25864 ft | 465 kts | 170° |
| 2026-05-07 21:00 | 52.85616 | 10.51950 | 26425 ft | 463 kts | 169° |
| 2026-05-07 21:01 | 52.82459 | 10.52981 | 26985 ft | 462 kts | 169° |
| 2026-05-07 21:01 | 52.79308 | 10.54018 | 27532 ft | 461 kts | 169° |
| 2026-05-07 21:01 | 52.76176 | 10.55054 | 28078 ft | 459 kts | 169° |
| 2026-05-07 21:01 | 52.73078 | 10.56072 | 28629 ft | 458 kts | 169° |
| 2026-05-07 21:02 | 52.69915 | 10.57098 | 29160 ft | 457 kts | 169° |
| 2026-05-07 21:02 | 52.66837 | 10.58096 | 29679 ft | 456 kts | 169° |
| 2026-05-07 21:02 | 52.63723 | 10.59105 | 30134 ft | 456 kts | 169° |
| 2026-05-07 21:02 | 52.60607 | 10.60112 | 30545 ft | 456 kts | 169° |
| 2026-05-07 21:03 | 52.57493 | 10.61118 | 30939 ft | 455 kts | 169° |
| 2026-05-07 21:03 | 52.54389 | 10.62122 | 31332 ft | 455 kts | 169° |
| 2026-05-07 21:03 | 52.51243 | 10.63136 | 31710 ft | 455 kts | 169° |
| 2026-05-07 21:03 | 52.48141 | 10.64135 | 32062 ft | 454 kts | 169° |
| 2026-05-07 21:04 | 52.45078 | 10.65121 | 32424 ft | 454 kts | 169° |
| 2026-05-07 21:04 | 52.41982 | 10.66115 | 32786 ft | 454 kts | 169° |
| 2026-05-07 21:04 | 52.38885 | 10.67105 | 33142 ft | 453 kts | 169° |
| 2026-05-07 21:04 | 52.35789 | 10.68095 | 33470 ft | 453 kts | 169° |
| 2026-05-07 21:05 | 52.32698 | 10.69087 | 33805 ft | 452 kts | 169° |
| 2026-05-07 21:05 | 52.29615 | 10.70074 | 34126 ft | 452 kts | 169° |
| 2026-05-07 21:05 | 52.26528 | 10.71060 | 34372 ft | 452 kts | 170° |
| 2026-05-07 21:05 | 52.23441 | 10.72043 | 34609 ft | 452 kts | 170° |
| 2026-05-07 21:06 | 52.20356 | 10.73023 | 34851 ft | 452 kts | 170° |
| 2026-05-07 21:06 | 52.18272 | 10.73682 | 35012 ft | 452 kts | 170° |
| 2026-05-07 21:06 | 52.15181 | 10.74663 | 35154 ft | 453 kts | 170° |
| 2026-05-07 21:07 | 52.09010 | 10.76670 | 35145 ft | 452 kts | 166° |
| 2026-05-07 21:07 | 52.03159 | 10.80463 | 35133 ft | 454 kts | 157° |
| 2026-05-07 21:08 | 51.97354 | 10.84506 | 35131 ft | 454 kts | 158° |
| 2026-05-07 21:08 | 51.91565 | 10.88421 | 35130 ft | 454 kts | 159° |
| 2026-05-07 21:09 | 51.85731 | 10.92339 | 35127 ft | 454 kts | 159° |
| 2026-05-07 21:09 | 51.79896 | 10.96243 | 35130 ft | 454 kts | 159° |
| 2026-05-07 21:10 | 51.74058 | 11.00144 | 35127 ft | 454 kts | 159° |
| 2026-05-07 21:10 | 51.68218 | 11.04036 | 35129 ft | 454 kts | 159° |
| 2026-05-07 21:11 | 51.62372 | 11.07918 | 35128 ft | 454 kts | 159° |
| 2026-05-07 21:11 | 51.53600 | 11.13717 | 35125 ft | 454 kts | 159° |
| 2026-05-07 21:12 | 51.47745 | 11.17579 | 35126 ft | 456 kts | 159° |
| 2026-05-07 21:12 | 51.41880 | 11.21438 | 35128 ft | 456 kts | 159° |
| 2026-05-07 21:13 | 51.36006 | 11.25283 | 35125 ft | 456 kts | 159° |
| 2026-05-07 21:13 | 51.30130 | 11.29125 | 35125 ft | 456 kts | 159° |
| 2026-05-07 21:14 | 51.24259 | 11.32956 | 35117 ft | 456 kts | 159° |
| 2026-05-07 21:14 | 51.18378 | 11.36780 | 35121 ft | 456 kts | 159° |
| 2026-05-07 21:15 | 51.12495 | 11.40598 | 35122 ft | 456 kts | 159° |
| 2026-05-07 21:15 | 51.06612 | 11.44406 | 35123 ft | 457 kts | 159° |
| 2026-05-07 21:16 | 51.00716 | 11.48198 | 35115 ft | 457 kts | 159° |
| 2026-05-07 21:16 | 50.94815 | 11.51992 | 35120 ft | 458 kts | 159° |
| 2026-05-07 21:17 | 50.88916 | 11.55769 | 35116 ft | 457 kts | 160° |
| 2026-05-07 21:17 | 50.83015 | 11.59535 | 35115 ft | 457 kts | 160° |
| 2026-05-07 21:18 | 50.77118 | 11.63297 | 35113 ft | 457 kts | 160° |
| 2026-05-07 21:18 | 50.71222 | 11.67047 | 35106 ft | 457 kts | 160° |
| 2026-05-07 21:19 | 50.65320 | 11.70789 | 35108 ft | 457 kts | 160° |
| 2026-05-07 21:19 | 50.59413 | 11.74524 | 35105 ft | 457 kts | 160° |
| 2026-05-07 21:20 | 50.53508 | 11.78252 | 35097 ft | 457 kts | 160° |
| 2026-05-07 21:20 | 50.47604 | 11.81973 | 35091 ft | 457 kts | 160° |
| 2026-05-07 21:21 | 50.41786 | 11.85859 | 35086 ft | 458 kts | 159° |
| 2026-05-07 21:21 | 50.35942 | 11.89825 | 35082 ft | 458 kts | 159° |
| 2026-05-07 21:22 | 50.30093 | 11.93776 | 35081 ft | 458 kts | 159° |
| 2026-05-07 21:22 | 50.24237 | 11.97699 | 35076 ft | 458 kts | 159° |
| 2026-05-07 21:23 | 50.18385 | 12.01623 | 35083 ft | 458 kts | 159° |
| 2026-05-07 21:23 | 50.12533 | 12.05549 | 35082 ft | 458 kts | 159° |
| 2026-05-07 21:24 | 50.06679 | 12.09480 | 35083 ft | 458 kts | 159° |
| 2026-05-07 21:24 | 50.00674 | 12.12627 | 35064 ft | 455 kts | 168° |
| 2026-05-07 21:25 | 49.94544 | 12.15108 | 34888 ft | 455 kts | 167° |
| 2026-05-07 21:25 | 49.91490 | 12.16375 | 34666 ft | 455 kts | 167° |
| 2026-05-07 21:25 | 49.88434 | 12.17656 | 34444 ft | 455 kts | 167° |
| 2026-05-07 21:26 | 49.85382 | 12.18939 | 34216 ft | 455 kts | 167° |
| 2026-05-07 21:26 | 49.82328 | 12.20225 | 33960 ft | 455 kts | 167° |
| 2026-05-07 21:26 | 49.79271 | 12.21512 | 33693 ft | 455 kts | 167° |
| 2026-05-07 21:26 | 49.76216 | 12.22797 | 33411 ft | 456 kts | 167° |
| 2026-05-07 21:27 | 49.73152 | 12.24082 | 33133 ft | 456 kts | 167° |
| 2026-05-07 21:27 | 49.70090 | 12.25363 | 32856 ft | 456 kts | 167° |
| 2026-05-07 21:27 | 49.67026 | 12.26636 | 32536 ft | 456 kts | 167° |
| 2026-05-07 21:27 | 49.63962 | 12.27913 | 32129 ft | 456 kts | 167° |
| 2026-05-07 21:28 | 49.60900 | 12.29190 | 31564 ft | 455 kts | 167° |
| 2026-05-07 21:28 | 49.57852 | 12.30462 | 30825 ft | 454 kts | 167° |
| 2026-05-07 21:28 | 49.54806 | 12.31730 | 29979 ft | 454 kts | 166° |
| 2026-05-07 21:28 | 49.51745 | 12.33005 | 28955 ft | 456 kts | 167° |
| 2026-05-07 21:29 | 49.48678 | 12.34279 | 27995 ft | 457 kts | 167° |
| 2026-05-07 21:29 | 49.45602 | 12.35555 | 27062 ft | 459 kts | 167° |
| 2026-05-07 21:29 | 49.42561 | 12.36815 | 26128 ft | 459 kts | 167° |
| 2026-05-07 21:29 | 49.39435 | 12.38104 | 25191 ft | 459 kts | 167° |
| 2026-05-07 21:30 | 49.36396 | 12.39359 | 24373 ft | 457 kts | 166° |
| 2026-05-07 21:30 | 49.33266 | 12.40649 | 23578 ft | 462 kts | 166° |
| 2026-05-07 21:30 | 49.30208 | 12.41910 | 22664 ft | 459 kts | 166° |
| 2026-05-07 21:30 | 49.27133 | 12.43176 | 21905 ft | 457 kts | 167° |
| 2026-05-07 21:31 | 49.24076 | 12.44431 | 21199 ft | 452 kts | 167° |
| 2026-05-07 21:31 | 49.21056 | 12.45670 | 20381 ft | 448 kts | 167° |
| 2026-05-07 21:31 | 49.18063 | 12.46894 | 19628 ft | 443 kts | 167° |
| 2026-05-07 21:31 | 49.15092 | 12.48109 | 18881 ft | 440 kts | 167° |
| 2026-05-07 21:32 | 49.12144 | 12.49313 | 18095 ft | 438 kts | 167° |
| 2026-05-07 21:32 | 49.09207 | 12.50511 | 17312 ft | 435 kts | 167° |
| 2026-05-07 21:32 | 49.06260 | 12.51372 | 16613 ft | 428 kts | 177° |
| 2026-05-07 21:32 | 49.03323 | 12.51282 | 15931 ft | 419 kts | 190° |
| 2026-05-07 21:33 | 49.00529 | 12.50207 | 15279 ft | 412 kts | 203° |
| 2026-05-07 21:33 | 48.97929 | 12.48439 | 14652 ft | 407 kts | 208° |
| 2026-05-07 21:33 | 48.95391 | 12.46570 | 14029 ft | 404 kts | 208° |
| 2026-05-07 21:33 | 48.92871 | 12.44723 | 13345 ft | 401 kts | 207° |
| 2026-05-07 21:34 | 48.90362 | 12.42911 | 12649 ft | 399 kts | 207° |
| 2026-05-07 21:34 | 48.87863 | 12.41125 | 11982 ft | 393 kts | 207° |
| 2026-05-07 21:34 | 48.85430 | 12.39396 | 11565 ft | 378 kts | 207° |
| 2026-05-07 21:34 | 48.83103 | 12.37747 | 11270 ft | 361 kts | 208° |
| 2026-05-07 21:35 | 48.80877 | 12.36171 | 10997 ft | 345 kts | 208° |
| 2026-05-07 21:35 | 48.78714 | 12.34764 | 10734 ft | 333 kts | 201° |
| 2026-05-07 21:35 | 48.76520 | 12.33842 | 10478 ft | 321 kts | 198° |
| 2026-05-07 21:35 | 48.74393 | 12.33034 | 10232 ft | 309 kts | 198° |
| 2026-05-07 21:36 | 48.72349 | 12.32258 | 9981 ft | 298 kts | 198° |
| 2026-05-07 21:36 | 48.70372 | 12.31502 | 9690 ft | 289 kts | 198° |
| 2026-05-07 21:36 | 48.68452 | 12.30766 | 9407 ft | 280 kts | 198° |
| 2026-05-07 21:36 | 48.66568 | 12.30045 | 9140 ft | 279 kts | 198° |
| 2026-05-07 21:37 | 48.64694 | 12.29326 | 8872 ft | 278 kts | 198° |
| 2026-05-07 21:37 | 48.62833 | 12.28614 | 8594 ft | 275 kts | 198° |
| 2026-05-07 21:37 | 48.60983 | 12.27905 | 8341 ft | 274 kts | 197° |
| 2026-05-07 21:37 | 48.59183 | 12.27016 | 8080 ft | 270 kts | 208° |
| 2026-05-07 21:38 | 48.57540 | 12.25662 | 7830 ft | 268 kts | 213° |
| 2026-05-07 21:38 | 48.55929 | 12.24244 | 7574 ft | 268 kts | 213° |
| 2026-05-07 21:38 | 48.54318 | 12.22831 | 7327 ft | 267 kts | 212° |
| 2026-05-07 21:38 | 48.52711 | 12.21431 | 7080 ft | 267 kts | 212° |
| 2026-05-07 21:39 | 48.51103 | 12.20036 | 6828 ft | 266 kts | 212° |
| 2026-05-07 21:39 | 48.49498 | 12.18649 | 6586 ft | 265 kts | 212° |
| 2026-05-07 21:39 | 48.47923 | 12.17285 | 6333 ft | 257 kts | 212° |
| 2026-05-07 21:39 | 48.46394 | 12.15956 | 6066 ft | 250 kts | 212° |
| 2026-05-07 21:40 | 48.44907 | 12.14670 | 5806 ft | 243 kts | 212° |
| 2026-05-07 21:40 | 48.43462 | 12.13425 | 5529 ft | 235 kts | 211° |
| 2026-05-07 21:40 | 48.42065 | 12.12224 | 5274 ft | 227 kts | 211° |
| 2026-05-07 21:40 | 48.40721 | 12.11069 | 5046 ft | 218 kts | 211° |
| 2026-05-07 21:41 | 48.39467 | 12.09876 | 4832 ft | 208 kts | 219° |
| 2026-05-07 21:41 | 48.38652 | 12.08191 | 4610 ft | 199 kts | 252° |
| 2026-05-07 21:41 | 48.38406 | 12.06142 | 4481 ft | 200 kts | 265° |
| 2026-05-07 21:41 | 48.38321 | 12.04098 | 4349 ft | 188 kts | 266° |
| 2026-05-07 21:42 | 48.38225 | 12.02227 | 4169 ft | 177 kts | 263° |
| 2026-05-07 21:42 | 48.38089 | 12.00460 | 3987 ft | 167 kts | 263° |
| 2026-05-07 21:42 | 48.37979 | 11.98761 | 3691 ft | 156 kts | 264° |
| 2026-05-07 21:42 | 48.37865 | 11.97199 | 3550 ft | 148 kts | 263° |
| 2026-05-07 21:43 | 48.37739 | 11.95666 | 3320 ft | 148 kts | 263° |
| 2026-05-07 21:43 | 48.37616 | 11.94131 | 3091 ft | 148 kts | 263° |
| 2026-05-07 21:43 | 48.37493 | 11.92596 | 2908 ft | 148 kts | 264° |
| 2026-05-07 21:43 | 48.37381 | 11.91058 | 2703 ft | 148 kts | 264° |
| 2026-05-07 21:44 | 48.37263 | 11.89524 | 2489 ft | 148 kts | 264° |
| 2026-05-07 21:44 | 48.37149 | 11.87995 | 2296 ft | 147 kts | 264° |
| 2026-05-07 21:44 | 48.37028 | 11.86480 | 2089 ft | 146 kts | 263° |
| 2026-05-07 21:44 | 48.36904 | 11.84978 | 1893 ft | 144 kts | 264° |
| 2026-05-07 21:45 | 48.36791 | 11.83483 | 1709 ft | 143 kts | 264° |
| 2026-05-07 21:45 | 48.36679 | 11.81996 | 1513 ft | 143 kts | 264° |
| 2026-05-07 21:45 | 48.36584 | 11.80749 | 1491 ft | 82 kts | 263° |
| 2026-05-07 21:45 | 48.36542 | 11.80201 | 1491 ft | 31 kts | 263° |
| 2026-05-07 21:46 | 48.36510 | 11.79881 | 1477 ft | 31 kts | 250° |
| 2026-05-07 21:46 | 48.36407 | 11.79615 | 1484 ft | 21 kts | 234° |
| 2026-05-07 21:46 | 48.36319 | 11.79435 | 1480 ft | 21 kts | 233° |
| 2026-05-07 21:46 | 48.36238 | 11.79305 | 1491 ft | 17 kts | 196° |
| 2026-05-07 21:47 | 48.36113 | 11.79312 | 1483 ft | 19 kts | 173° |
| 2026-05-07 21:47 | 48.35986 | 11.79334 | 1491 ft | 14 kts | 173° |
| 2026-05-07 21:47 | 48.35888 | 11.79376 | 1487 ft | 16 kts | 170° |
| 2026-05-07 21:47 | 48.35771 | 11.79399 | 1481 ft | 18 kts | 173° |
| 2026-05-07 21:48 | 48.35641 | 11.79421 | 1486 ft | 19 kts | 173° |
| 2026-05-07 21:48 | 48.35552 | 11.79433 | 1477 ft | 9 kts | 192° |
| 2026-05-07 21:48 | 48.35529 | 11.79345 | 1485 ft | 8 kts | 263° |
| 2026-05-07 21:48 | 48.35525 | 11.79296 | 1484 ft | 2 kts | 263° |
| 2026-05-07 21:49 | 48.35525 | 11.79290 | 1486 ft | 0 kts | 263° |